createdAt,value
2023-01-27T00:00:13.815Z,100615.38
2023-01-27T00:02:42.037Z,100617.13
2023-01-27T00:05:09.921Z,100620.66
2023-01-27T00:07:36.370Z,100610.19
2023-01-27T00:10:03.643Z,100613.72
2023-01-27T00:12:48.437Z,100611.09
2023-01-27T00:15:15.900Z,100612.81
2023-01-27T00:17:42.571Z,100608.44
2023-01-27T00:20:09.963Z,100615.41
2023-01-27T00:22:54.735Z,100616.31
2023-01-27T00:25:22.255Z,100616.34
2023-01-27T00:27:48.818Z,100615.44
2023-01-27T00:30:15.334Z,100614.56
2023-01-27T00:33:00.391Z,100615.44
2023-01-27T00:35:26.759Z,100618.06
2023-01-27T00:37:53.441Z,100610.19
2023-01-27T00:40:19.898Z,100619.75
2023-01-27T00:42:46.275Z,100614.53
2023-01-27T00:45:31.098Z,100615.38
2023-01-27T00:47:57.512Z,100624.91
2023-01-27T00:50:23.948Z,100619.66
2023-01-27T00:52:50.840Z,100618.75
2023-01-27T00:55:18.156Z,100617.03
2023-01-27T00:57:44.597Z,100623.97
2023-01-27T01:00:12.093Z,100623.06
2023-01-27T01:02:38.557Z,100623.94
2023-01-27T01:05:05.254Z,100629.16
2023-01-27T01:07:31.598Z,100613.53
2023-01-27T01:09:57.993Z,100620.47
2023-01-27T01:12:24.364Z,100615.28
2023-01-27T01:14:50.709Z,100617.91
2023-01-27T01:17:17.119Z,100620.59
2023-01-27T01:19:43.457Z,100618.84
2023-01-27T01:22:09.961Z,100626.72
2023-01-27T01:24:36.332Z,100628.47
2023-01-27T01:27:02.698Z,100631.09
2023-01-27T01:29:29.068Z,100632.00
2023-01-27T01:31:55.481Z,100636.34
2023-01-27T01:34:21.801Z,100626.81
2023-01-27T01:36:48.174Z,100635.47
2023-01-27T01:39:14.573Z,100632.00
2023-01-27T01:41:40.990Z,100632.00
2023-01-27T01:44:30.801Z,100635.56
2023-01-27T01:46:57.886Z,100640.66
2023-01-27T01:49:30.538Z,100636.34
2023-01-27T01:52:03.027Z,100631.13
2023-01-27T01:54:38.567Z,100637.22
2023-01-27T01:57:10.881Z,100637.22
2023-01-27T02:00:07.699Z,100635.56
2023-01-27T02:02:35.952Z,100645.06
2023-01-27T02:05:15.028Z,100645.13
2023-01-27T02:08:03.204Z,100642.50
2023-01-27T02:10:29.672Z,100633.75
2023-01-27T02:12:56.330Z,100634.66
2023-01-27T02:15:22.776Z,100641.59
2023-01-27T02:17:49.385Z,100643.38
2023-01-27T02:20:27.626Z,100639.91
2023-01-27T02:23:31.153Z,100639.06
2023-01-27T02:26:13.550Z,100631.16
2023-01-27T02:28:39.985Z,100640.69
2023-01-27T02:31:06.447Z,100640.69
2023-01-27T02:33:32.926Z,100634.59
2023-01-27T02:36:05.662Z,100634.66
2023-01-27T02:38:39.229Z,100629.41
2023-01-27T02:41:21.336Z,100634.66
2023-01-27T02:43:49.183Z,100634.53
2023-01-27T02:46:16.315Z,100638.06
2023-01-27T02:48:42.922Z,100638.06
2023-01-27T02:51:09.495Z,100636.31
2023-01-27T02:53:35.890Z,100633.72
2023-01-27T02:56:02.402Z,100637.16
2023-01-27T02:58:28.782Z,100638.03
2023-01-27T03:00:55.163Z,100636.28
2023-01-27T03:03:21.584Z,100640.66
2023-01-27T03:05:50.770Z,100642.34
2023-01-27T03:08:18.582Z,100638.94
2023-01-27T03:10:45.588Z,100641.53
2023-01-27T03:13:12.017Z,100632.84
2023-01-27T03:15:56.863Z,100645.06
2023-01-27T03:18:23.301Z,100639.84
2023-01-27T03:20:49.825Z,100646.81
2023-01-27T03:23:20.848Z,100646.03
2023-01-27T03:25:48.285Z,100640.78
2023-01-27T03:28:15.219Z,100650.38
2023-01-27T03:30:41.894Z,100644.28
2023-01-27T03:33:08.348Z,100647.78
2023-01-27T03:35:39.649Z,100645.19
2023-01-27T03:38:30.683Z,100650.44
2023-01-27T03:41:15.945Z,100654.72
2023-01-27T03:44:00.748Z,100650.38
2023-01-27T03:46:27.288Z,100650.38
2023-01-27T03:48:55.741Z,100653.88
2023-01-27T03:51:24.252Z,100661.72
2023-01-27T03:53:50.838Z,100660.78
2023-01-27T03:56:19.117Z,100660.78
2023-01-27T03:58:45.867Z,100668.63
2023-01-27T04:01:18.949Z,100652.09
2023-01-27T04:04:05.016Z,100659.88
2023-01-27T04:06:52.158Z,100659.00
2023-01-27T04:09:36.173Z,100659.06
2023-01-27T04:12:04.994Z,100665.97
2023-01-27T04:14:42.119Z,100661.66
2023-01-27T04:17:18.822Z,100674.72
2023-01-27T04:19:46.624Z,100668.56
2023-01-27T04:22:13.930Z,100667.66
2023-01-27T04:24:40.308Z,100672.00
2023-01-27T04:27:12.302Z,100669.38
2023-01-27T04:29:41.209Z,100675.50
2023-01-27T04:34:52.672Z,100665.91
2023-01-27T04:37:19.026Z,100661.59
2023-01-27T04:39:45.902Z,100665.97
2023-01-27T04:42:12.287Z,100678.16
2023-01-27T04:44:38.647Z,100666.81
2023-01-27T04:47:05.031Z,100678.16
2023-01-27T04:49:31.364Z,100666.81
2023-01-27T04:51:57.677Z,100672.06
2023-01-27T04:54:24.000Z,100683.41
2023-01-27T04:57:03.406Z,100679.97
2023-01-27T04:59:29.766Z,100683.44
2023-01-27T05:01:56.183Z,100686.00
2023-01-27T05:04:22.661Z,100686.00
2023-01-27T05:06:49.040Z,100695.53
2023-01-27T05:09:15.422Z,100687.78
2023-01-27T05:11:41.755Z,100691.22
2023-01-27T05:14:08.128Z,100698.16
2023-01-27T05:16:34.491Z,100699.03
2023-01-27T05:19:01.992Z,100697.31
2023-01-27T05:21:28.472Z,100699.91
2023-01-27T05:23:54.878Z,100704.25
2023-01-27T05:26:25.703Z,100704.25
2023-01-27T05:28:53.164Z,100704.25
2023-01-27T05:31:22.418Z,100700.72
2023-01-27T05:33:51.300Z,100706.84
2023-01-27T05:36:20.222Z,100703.38
2023-01-27T05:38:46.853Z,100697.25
2023-01-27T05:41:14.527Z,100708.59
2023-01-27T05:43:42.786Z,100710.38
2023-01-27T05:46:13.276Z,100708.59
2023-01-27T05:48:45.535Z,100713.81
2023-01-27T05:51:15.126Z,100710.31
2023-01-27T05:53:42.540Z,100711.19
2023-01-27T05:56:11.449Z,100717.31
2023-01-27T05:58:38.801Z,100720.72
2023-01-27T06:01:09.158Z,100725.13
2023-01-27T06:03:36.136Z,100733.78
2023-01-27T06:06:03.542Z,100719.00
2023-01-27T06:08:30.514Z,100735.59
2023-01-27T06:10:58.392Z,100735.63
2023-01-27T06:13:25.095Z,100737.31
2023-01-27T06:15:51.635Z,100743.41
2023-01-27T06:18:19.274Z,100738.16
2023-01-27T06:20:45.964Z,100741.63
2023-01-27T06:23:13.742Z,100734.69
2023-01-27T06:25:45.867Z,100734.66
2023-01-27T06:28:27.161Z,100739.84
2023-01-27T06:30:56.229Z,100742.47
2023-01-27T06:33:22.650Z,100745.91
2023-01-27T06:35:49.158Z,100743.41
2023-01-27T06:38:15.607Z,100752.94
2023-01-27T06:40:43.175Z,100745.13
2023-01-27T06:43:16.372Z,100754.72
2023-01-27T06:45:42.733Z,100755.56
2023-01-27T06:48:09.088Z,100754.69
2023-01-27T06:50:36.569Z,100752.09
2023-01-27T06:53:06.722Z,100752.09
2023-01-27T06:55:34.077Z,100751.25
2023-01-27T06:58:03.445Z,100759.94
2023-01-27T07:00:30.202Z,100758.16
2023-01-27T07:02:57.393Z,100769.50
2023-01-27T07:05:24.492Z,100762.50
2023-01-27T07:07:50.984Z,100765.97
2023-01-27T07:10:17.904Z,100759.88
2023-01-27T07:12:44.369Z,100765.09
2023-01-27T07:15:11.310Z,100771.19
2023-01-27T07:17:37.735Z,100776.41
2023-01-27T07:20:06.579Z,100779.84
2023-01-27T07:22:32.940Z,100785.97
2023-01-27T07:24:59.418Z,100784.22
2023-01-27T07:27:26.111Z,100789.38
2023-01-27T07:29:52.568Z,100796.34
2023-01-27T07:32:19.171Z,100798.03
2023-01-27T07:34:45.494Z,100799.78
2023-01-27T07:37:11.881Z,100798.88
2023-01-27T07:39:38.890Z,100805.00
2023-01-27T07:42:06.615Z,100797.19
2023-01-27T07:44:33.156Z,100814.56
2023-01-27T07:46:59.866Z,100809.34
2023-01-27T07:49:27.559Z,100812.84
2023-01-27T07:51:54.203Z,100817.16
2023-01-27T07:54:20.775Z,100827.63
2023-01-27T07:56:47.243Z,100838.06
2023-01-27T07:59:13.679Z,100834.59
2023-01-27T08:01:41.721Z,100833.72
2023-01-27T08:04:08.370Z,100829.38
2023-01-27T08:06:34.881Z,100843.31
2023-01-27T08:09:01.275Z,100841.56
2023-01-27T08:11:27.610Z,100840.69
2023-01-27T08:13:54.041Z,100846.78
2023-01-27T08:16:20.576Z,100848.50
2023-01-27T08:18:46.936Z,100838.91
2023-01-27T08:21:13.386Z,100847.59
2023-01-27T08:23:41.360Z,100844.97
2023-01-27T08:26:07.883Z,100852.78
2023-01-27T08:28:36.612Z,100848.44
2023-01-27T08:31:15.873Z,100851.09
2023-01-27T08:33:44.192Z,100852.78
2023-01-27T08:36:16.407Z,100864.09
2023-01-27T08:38:44.679Z,100855.38
2023-01-27T08:41:13.694Z,100860.56
2023-01-27T08:43:40.245Z,100857.06
2023-01-27T08:46:07.357Z,100866.69
2023-01-27T08:48:34.871Z,100868.41
2023-01-27T08:51:01.859Z,100860.59
2023-01-27T08:53:28.591Z,100871.91
2023-01-27T08:56:02.055Z,100871.94
2023-01-27T08:58:28.422Z,100867.63
2023-01-27T09:00:54.792Z,100878.00
2023-01-27T09:03:21.192Z,100867.56
2023-01-27T09:05:48.045Z,100886.72
2023-01-27T09:08:19.422Z,100882.38
2023-01-27T09:10:45.763Z,100887.53
2023-01-27T09:13:12.227Z,100886.66
2023-01-27T09:15:40.534Z,100894.50
2023-01-27T09:18:07.019Z,100884.88
2023-01-27T09:20:34.410Z,100888.38
2023-01-27T09:23:01.129Z,100886.59
2023-01-27T09:25:27.966Z,100889.19
2023-01-27T09:27:56.036Z,100897.00
2023-01-27T09:30:24.015Z,100899.59
2023-01-27T09:32:50.392Z,100896.06
2023-01-27T09:35:17.292Z,100894.34
2023-01-27T09:37:57.747Z,100899.59
2023-01-27T09:40:39.414Z,100910.03
2023-01-27T09:43:31.425Z,100910.84
2023-01-27T09:46:19.418Z,100910.78
2023-01-27T09:48:57.451Z,100908.97
2023-01-27T09:51:51.608Z,100910.75
2023-01-27T09:54:44.502Z,100913.28
2023-01-27T09:57:53.641Z,100915.84
2023-01-27T10:00:47.270Z,100915.81
2023-01-27T10:03:13.563Z,100912.22
2023-01-27T10:05:58.143Z,100914.81
2023-01-27T10:08:56.053Z,100909.59
2023-01-27T10:11:37.987Z,100917.41
2023-01-27T10:14:36.819Z,100916.47
2023-01-27T10:17:20.581Z,100913.88
2023-01-27T10:19:58.282Z,100926.03
2023-01-27T10:22:44.843Z,100926.81
2023-01-27T10:25:51.427Z,100912.03
2023-01-27T10:28:22.870Z,100904.13
2023-01-27T10:31:03.062Z,100918.06
2023-01-27T10:36:27.320Z,100916.22
2023-01-27T10:39:09.655Z,100908.22
2023-01-27T10:42:00.082Z,100905.47
2023-01-27T10:44:47.748Z,100910.66
2023-01-27T10:47:34.552Z,100905.34
2023-01-27T10:50:07.016Z,100909.63
2023-01-27T10:52:52.195Z,100908.78
2023-01-27T10:55:45.122Z,100911.31
2023-01-27T10:58:23.515Z,100902.59
2023-01-27T11:03:47.828Z,100907.78
2023-01-27T11:06:17.296Z,100905.16
2023-01-27T11:08:47.708Z,100907.81
2023-01-27T11:11:36.728Z,100907.84
2023-01-27T11:14:17.053Z,100895.69
2023-01-27T11:16:53.047Z,100896.63
2023-01-27T11:19:42.569Z,100900.16
2023-01-27T11:22:21.420Z,100891.44
2023-01-27T11:24:58.932Z,100900.19
2023-01-27T11:27:48.205Z,100893.34
2023-01-27T11:30:27.854Z,100898.53
2023-01-27T11:32:59.973Z,100903.75
2023-01-27T11:35:26.633Z,100904.56
2023-01-27T11:37:58.199Z,100911.56
2023-01-27T11:40:32.665Z,100896.72
2023-01-27T11:42:59.716Z,100901.91
2023-01-27T11:45:27.425Z,100896.69
2023-01-27T11:48:02.144Z,100900.19
2023-01-27T11:50:34.677Z,100892.28
2023-01-27T11:53:15.986Z,100893.97
2023-01-27T11:55:57.820Z,100886.09
2023-01-27T11:58:34.037Z,100880.78
2023-01-27T12:01:05.452Z,100879.00
2023-01-27T12:04:09.767Z,100883.38
2023-01-27T12:06:44.782Z,100884.19
2023-01-27T12:09:34.327Z,100883.34
2023-01-27T12:12:11.887Z,100880.72
2023-01-27T12:14:38.325Z,100878.03
2023-01-27T12:17:07.976Z,100876.31
2023-01-27T12:19:40.981Z,100882.41
2023-01-27T12:22:14.949Z,100877.16
2023-01-27T12:24:47.907Z,100876.28
2023-01-27T12:27:20.647Z,100882.38
2023-01-27T12:29:55.443Z,100884.13
2023-01-27T12:32:32.918Z,100877.25
2023-01-27T12:34:59.697Z,100883.31
2023-01-27T12:37:34.317Z,100875.63
2023-01-27T12:40:05.715Z,100874.75
2023-01-27T12:42:39.711Z,100868.69
2023-01-27T12:45:33.479Z,100860.84
2023-01-27T12:48:09.017Z,100862.50
2023-01-27T12:50:41.365Z,100854.59
2023-01-27T12:53:27.507Z,100859.00
2023-01-27T12:56:14.681Z,100862.41
2023-01-27T12:58:46.216Z,100862.41
2023-01-27T13:01:21.603Z,100864.09
2023-01-27T13:03:54.808Z,100858.03
2023-01-27T13:06:30.563Z,100860.66
2023-01-27T13:08:58.080Z,100868.47
2023-01-27T13:11:34.552Z,100867.63
2023-01-27T13:14:00.975Z,100864.97
2023-01-27T13:16:30.233Z,100863.25
2023-01-27T13:18:59.471Z,100870.28
2023-01-27T13:21:35.699Z,100872.97
2023-01-27T13:24:12.622Z,100875.63
2023-01-27T13:26:40.791Z,100879.16
2023-01-27T13:29:10.012Z,100876.59
2023-01-27T13:31:51.786Z,100875.78
2023-01-27T13:34:40.492Z,100874.09
2023-01-27T13:37:16.227Z,100880.19
2023-01-27T13:39:55.190Z,100875.91
2023-01-27T13:42:36.861Z,100882.88
2023-01-27T13:45:10.485Z,100882.84
2023-01-27T13:48:01.189Z,100883.78
2023-01-27T13:50:36.006Z,100884.66
2023-01-27T13:53:04.266Z,100879.38
2023-01-27T13:55:48.956Z,100880.25
2023-01-27T13:58:27.629Z,100885.59
2023-01-27T14:00:53.969Z,100884.69
2023-01-27T14:03:37.642Z,100883.94
2023-01-27T14:06:09.071Z,100889.16
2023-01-27T14:09:01.677Z,100887.50
2023-01-27T14:11:47.665Z,100893.59
2023-01-27T14:14:36.382Z,100898.81
2023-01-27T14:17:15.648Z,100900.63
2023-01-27T14:20:24.900Z,100905.00
2023-01-27T14:23:09.094Z,100905.00
2023-01-27T14:25:44.848Z,100896.28
2023-01-27T14:28:28.480Z,100903.31
2023-01-27T14:31:06.055Z,100893.75
2023-01-27T14:34:06.068Z,100897.28
2023-01-27T14:36:42.694Z,100901.56
2023-01-27T14:39:24.937Z,100893.72
2023-01-27T14:42:29.530Z,100899.78
2023-01-27T14:45:20.671Z,100897.13
2023-01-27T14:48:00.734Z,100905.81
2023-01-27T14:50:51.878Z,100911.06
2023-01-27T14:53:30.205Z,100906.75
2023-01-27T14:56:11.554Z,100915.47
2023-01-27T14:58:47.525Z,100914.63
2023-01-27T15:01:44.723Z,100919.91
2023-01-27T15:04:34.517Z,100916.41
2023-01-27T15:07:34.791Z,100925.16
2023-01-27T15:10:20.560Z,100926.94
2023-01-27T15:13:11.779Z,100923.41
2023-01-27T15:15:56.788Z,100927.88
2023-01-27T15:18:31.735Z,100934.88
2023-01-27T15:21:23.040Z,100931.44
2023-01-27T15:24:18.808Z,100931.44
2023-01-27T15:26:47.792Z,100936.59
2023-01-27T15:29:17.304Z,100933.16
2023-01-27T15:32:03.921Z,100940.09
2023-01-27T15:34:30.362Z,100935.72
2023-01-27T15:37:03.804Z,100930.50
2023-01-27T15:39:40.767Z,100940.03
2023-01-27T15:42:11.205Z,100935.66
2023-01-27T15:45:00.477Z,100940.03
2023-01-27T15:47:30.504Z,100940.88
2023-01-27T15:50:22.832Z,100942.72
2023-01-27T15:52:50.802Z,100940.06
2023-01-27T15:55:27.863Z,100937.53
2023-01-27T15:58:43.392Z,100939.34
2023-01-27T16:01:22.683Z,100934.09
2023-01-27T16:03:51.412Z,100939.38
2023-01-27T16:06:24.237Z,100942.94
2023-01-27T16:09:01.176Z,100943.88
2023-01-27T16:11:30.505Z,100943.06
2023-01-27T16:14:23.001Z,100943.09
2023-01-27T16:16:52.158Z,100943.97
2023-01-27T16:19:28.862Z,100944.84
2023-01-27T16:22:07.000Z,100954.44
2023-01-27T16:24:50.751Z,100957.91
2023-01-27T16:27:35.838Z,100957.03
2023-01-27T16:30:22.545Z,100962.31
2023-01-27T16:32:57.741Z,100963.13
2023-01-27T16:35:24.350Z,100966.63
2023-01-27T16:38:06.434Z,100968.47
2023-01-27T16:40:34.471Z,100966.63
2023-01-27T16:43:16.640Z,100969.34
2023-01-27T16:45:53.958Z,100968.47
2023-01-27T16:48:42.245Z,100971.91
2023-01-27T16:51:18.614Z,100971.09
2023-01-27T16:53:50.440Z,100978.03
2023-01-27T16:56:26.914Z,100977.22
2023-01-27T16:59:05.696Z,100971.16
2023-01-27T17:01:47.035Z,100977.28
2023-01-27T17:04:25.842Z,100979.00
2023-01-27T17:06:56.282Z,100980.75
2023-01-27T17:09:28.141Z,100979.00
2023-01-27T17:11:55.515Z,100981.69
2023-01-27T17:14:31.785Z,100982.59
2023-01-27T17:17:01.454Z,100985.16
2023-01-27T17:19:31.497Z,100984.31
2023-01-27T17:22:06.583Z,100992.16
2023-01-27T17:24:49.892Z,100988.72
2023-01-27T17:27:26.829Z,100993.06
2023-01-27T17:30:00.634Z,100996.50
2023-01-27T17:32:30.891Z,101004.31
2023-01-27T17:35:00.291Z,100997.34
2023-01-27T17:37:30.359Z,101004.31
2023-01-27T17:40:03.154Z,101005.13
2023-01-27T17:42:32.195Z,101005.09
2023-01-27T17:45:26.703Z,101006.88
2023-01-27T17:47:53.990Z,101005.06
2023-01-27T17:50:23.722Z,101019.06
2023-01-27T17:52:53.204Z,101020.78
2023-01-27T17:55:25.221Z,101024.31
2023-01-27T17:58:02.276Z,101019.97
2023-01-27T18:00:34.617Z,101024.31
2023-01-27T18:03:06.355Z,101026.91
2023-01-27T18:05:33.940Z,101033.88
2023-01-27T18:08:01.391Z,101032.09
2023-01-27T18:10:37.780Z,101036.50
2023-01-27T18:13:19.409Z,101042.59
2023-01-27T18:15:51.934Z,101039.09
2023-01-27T18:18:25.656Z,101033.88
2023-01-27T18:21:00.796Z,101047.84
2023-01-27T18:23:30.457Z,101041.78
2023-01-27T18:26:40.680Z,101040.13
2023-01-27T18:29:17.301Z,101048.81
2023-01-27T18:32:07.762Z,101047.97
2023-01-27T18:34:45.932Z,101043.69
2023-01-27T18:37:26.971Z,101048.94
2023-01-27T18:39:54.327Z,101052.41
2023-01-27T18:42:22.736Z,101053.34
2023-01-27T18:44:50.622Z,101052.47
2023-01-27T18:47:16.975Z,101062.97
2023-01-27T18:50:13.013Z,101062.19
2023-01-27T18:52:40.106Z,101060.41
2023-01-27T18:55:26.821Z,101064.81
2023-01-27T18:58:00.465Z,101060.47
2023-01-27T19:00:31.233Z,101057.88
2023-01-27T19:03:00.872Z,101059.59
2023-01-27T19:05:30.082Z,101062.25
2023-01-27T19:07:56.666Z,101058.78
2023-01-27T19:10:25.847Z,101067.50
2023-01-27T19:12:53.046Z,101067.50
2023-01-27T19:15:23.649Z,101068.38
2023-01-27T19:17:58.317Z,101067.56
2023-01-27T19:20:28.284Z,101072.75
2023-01-27T19:22:56.301Z,101070.16
2023-01-27T19:25:24.813Z,101074.50
2023-01-27T19:27:54.090Z,101071.06
2023-01-27T19:30:27.256Z,101077.16
2023-01-27T19:32:55.135Z,101077.16
2023-01-27T19:35:26.266Z,101086.75
2023-01-27T19:37:55.287Z,101078.09
2023-01-27T19:40:26.871Z,101079.84
2023-01-27T19:42:54.153Z,101085.06
2023-01-27T19:45:21.978Z,101082.50
2023-01-27T19:47:49.396Z,101085.16
2023-01-27T19:50:21.652Z,101083.50
2023-01-27T19:52:48.285Z,101086.13
2023-01-27T19:55:16.237Z,101105.28
2023-01-27T19:57:42.945Z,101100.06
2023-01-27T20:00:21.738Z,101100.13
2023-01-27T20:02:48.162Z,101106.22
2023-01-27T20:05:14.852Z,101104.50
2023-01-27T20:07:41.513Z,101101.91
2023-01-27T20:10:17.020Z,101101.94
2023-01-27T20:12:44.575Z,101096.72
2023-01-27T20:15:16.880Z,101106.38
2023-01-27T20:17:43.457Z,101109.81
2023-01-27T20:20:10.638Z,101103.78
2023-01-27T20:22:37.322Z,101106.41
2023-01-27T20:25:04.240Z,101106.44
2023-01-27T20:27:30.776Z,101103.00
2023-01-27T20:29:57.080Z,101101.28
2023-01-27T20:32:24.289Z,101099.56
2023-01-27T20:34:50.611Z,101098.69
2023-01-27T20:37:17.497Z,101096.09
2023-01-27T20:39:43.927Z,101096.97
2023-01-27T20:42:10.261Z,101091.75
2023-01-27T20:44:36.562Z,101092.66
2023-01-27T20:47:02.889Z,101097.81
2023-01-27T20:49:29.185Z,101087.38
2023-01-27T20:51:55.729Z,101088.25
2023-01-27T20:54:22.180Z,101094.34
2023-01-27T20:56:48.471Z,101095.19
2023-01-27T20:59:14.992Z,101096.06
2023-01-27T21:01:41.844Z,101096.06
2023-01-27T21:04:08.189Z,101092.56
2023-01-27T21:06:35.067Z,101099.50
2023-01-27T21:09:01.369Z,101093.44
2023-01-27T21:11:27.695Z,101100.38
2023-01-27T21:13:54.169Z,101094.28
2023-01-27T21:16:20.609Z,101091.69
2023-01-27T21:18:47.005Z,101095.16
2023-01-27T21:21:31.659Z,101093.47
2023-01-27T21:23:59.943Z,101086.47
2023-01-27T21:26:26.975Z,101093.44
2023-01-27T21:28:53.369Z,101090.84
2023-01-27T21:31:21.779Z,101086.50
2023-01-27T21:33:49.927Z,101082.16
2023-01-27T21:36:17.636Z,101078.69
2023-01-27T21:38:44.048Z,101070.00
2023-01-27T21:41:34.819Z,101078.72
2023-01-27T21:44:20.123Z,101070.94
2023-01-27T21:46:46.482Z,101060.56
2023-01-27T21:49:12.814Z,101063.22
2023-01-27T21:51:39.126Z,101066.75
2023-01-27T21:54:05.497Z,101065.94
2023-01-27T21:56:31.806Z,101070.28
2023-01-27T21:58:58.139Z,101069.47
2023-01-27T22:01:25.070Z,101066.88
2023-01-27T22:03:51.475Z,101072.09
2023-01-27T22:06:17.825Z,101070.38
2023-01-27T22:08:44.376Z,101074.78
2023-01-27T22:11:12.558Z,101077.38
2023-01-27T22:13:39.087Z,101069.56
2023-01-27T22:16:05.992Z,101077.38
2023-01-27T22:18:32.394Z,101080.81
2023-01-27T22:21:02.145Z,101076.50
2023-01-27T22:23:28.617Z,101068.66
2023-01-27T22:25:54.977Z,101077.38
2023-01-27T22:28:23.020Z,101066.94
2023-01-27T22:30:49.537Z,101067.81
2023-01-27T22:33:15.916Z,101070.41
